createdAt,value
2016-11-24T00:01:09.499Z,6.21
2016-11-24T00:02:09.513Z,6.22
2016-11-24T00:03:09.539Z,6.19
2016-11-24T00:04:09.556Z,6.17
2016-11-24T00:05:09.592Z,6.18
2016-11-24T00:06:09.645Z,6.3
2016-11-24T00:07:09.612Z,6.27
2016-11-24T00:08:09.632Z,6.3
2016-11-24T00:09:09.645Z,6.36
2016-11-24T00:10:09.666Z,6.21
2016-11-24T00:12:24.615Z,6.3
2016-11-24T00:13:09.723Z,6.27
2016-11-24T00:14:09.737Z,6.25
2016-11-24T00:16:09.812Z,6.27
2016-11-24T00:17:09.801Z,6.3
2016-11-24T00:18:09.810Z,6.27
2016-11-24T00:19:09.834Z,6.19
2016-11-24T00:20:24.787Z,6.18
2016-11-24T00:21:09.869Z,6.3
2016-11-24T00:22:09.934Z,6.28
2016-11-24T00:23:09.901Z,6.22
2016-11-24T00:24:09.926Z,6.3
2016-11-24T00:25:09.939Z,6.34
2016-11-24T00:26:09.964Z,6.36
2016-11-24T00:27:24.890Z,6.31
2016-11-24T00:28:09.996Z,6.34
2016-11-24T00:29:24.932Z,6.27
2016-11-24T00:30:24.950Z,6.22
2016-11-24T00:31:10.056Z,6.38
2016-11-24T00:32:10.069Z,6.43
2016-11-24T00:33:10.096Z,6.4
2016-11-24T00:34:10.107Z,6.38
2016-11-24T00:35:10.131Z,6.44
2016-11-24T00:37:10.161Z,6.46
2016-11-24T00:38:10.184Z,6.43
2016-11-24T00:39:10.202Z,6.36
2016-11-24T00:40:10.253Z,6.4
2016-11-24T00:41:10.240Z,6.41
2016-11-24T00:42:10.261Z,6.36
2016-11-24T00:43:25.190Z,6.34
2016-11-24T00:44:10.299Z,6.38
2016-11-24T00:45:10.317Z,6.37
2016-11-24T00:46:10.333Z,6.31
2016-11-24T00:47:10.354Z,6.37
2016-11-24T00:48:10.372Z,6.34
2016-11-24T00:49:25.298Z,6.36
2016-11-24T00:51:10.429Z,6.36
2016-11-24T00:52:10.448Z,6.4
2016-11-24T00:53:10.497Z,6.4
2016-11-24T00:54:10.517Z,6.38
2016-11-24T00:56:10.522Z,6.44
2016-11-24T00:57:10.795Z,6.46
2016-11-24T00:58:25.476Z,6.38
2016-11-24T00:59:10.576Z,6.37
2016-11-24T01:00:10.600Z,6.3
2016-11-24T01:01:10.618Z,6.28
2016-11-24T01:02:10.637Z,6.25
2016-11-24T01:03:10.660Z,6.27
2016-11-24T01:04:10.723Z,6.21
2016-11-24T01:05:10.693Z,6.21
2016-11-24T01:06:10.703Z,6.21
2016-11-24T01:07:10.730Z,6.3
2016-11-24T01:08:10.751Z,6.48
2016-11-24T01:09:10.770Z,6.37
2016-11-24T01:10:10.784Z,6.54
2016-11-24T01:11:10.806Z,6.52
2016-11-24T01:12:10.823Z,6.51
2016-11-24T01:13:10.836Z,6.41
2016-11-24T01:14:25.805Z,6.54
2016-11-24T01:15:10.877Z,6.52
2016-11-24T01:16:25.809Z,6.36
2016-11-24T01:17:10.912Z,6.43
2016-11-24T01:18:10.936Z,6.43
2016-11-24T01:19:10.957Z,6.38
2016-11-24T01:20:10.970Z,6.51
2016-11-24T01:21:10.996Z,6.52
2016-11-24T01:22:11.013Z,6.44
2016-11-24T01:23:11.028Z,6.38
2016-11-24T01:24:11.050Z,6.37
2016-11-24T01:25:11.068Z,6.36
2016-11-24T01:27:11.102Z,6.37
2016-11-24T01:28:11.127Z,6.36
2016-11-24T01:29:11.144Z,6.31
2016-11-24T01:30:26.074Z,6.28
2016-11-24T01:31:11.181Z,6.27
2016-11-24T01:32:11.197Z,6.3
2016-11-24T01:33:11.528Z,6.36
2016-11-24T01:34:11.239Z,6.41
2016-11-24T01:35:11.252Z,6.43
2016-11-24T01:36:26.184Z,6.41
2016-11-24T01:37:11.292Z,6.56
2016-11-24T01:38:11.316Z,6.56
2016-11-24T01:39:11.328Z,6.55
2016-11-24T01:40:11.346Z,6.62
2016-11-24T01:41:11.364Z,6.58
2016-11-24T01:42:11.393Z,6.64
2016-11-24T01:43:11.404Z,6.66
2016-11-24T01:44:11.429Z,6.74
2016-11-24T01:45:11.435Z,6.76
2016-11-24T01:46:26.373Z,6.71
2016-11-24T01:47:11.477Z,6.77
2016-11-24T01:48:11.502Z,6.62
2016-11-24T01:49:11.513Z,6.59
2016-11-24T01:51:26.466Z,6.59
2016-11-24T01:52:11.610Z,6.64
2016-11-24T01:53:26.499Z,6.61
2016-11-24T01:54:11.613Z,6.59
2016-11-24T01:55:11.632Z,6.64
2016-11-24T01:56:11.659Z,6.73
2016-11-24T01:57:11.671Z,6.71
2016-11-24T01:58:11.697Z,6.73
2016-11-24T01:59:11.702Z,6.76
2016-11-24T02:00:11.723Z,6.69
2016-11-24T02:01:11.744Z,6.62
2016-11-24T02:02:26.670Z,6.66
2016-11-24T02:04:26.710Z,6.61
2016-11-24T02:05:11.814Z,6.7
2016-11-24T02:06:11.832Z,6.64
2016-11-24T02:07:26.763Z,6.62
2016-11-24T02:08:26.781Z,6.67
2016-11-24T02:09:26.798Z,6.64
2016-11-24T02:10:11.910Z,6.64
2016-11-24T02:11:11.934Z,6.58
2016-11-24T02:12:11.945Z,6.58
2016-11-24T02:13:12.016Z,6.59
2016-11-24T02:14:11.980Z,6.58
2016-11-24T02:15:12.003Z,6.58
2016-11-24T02:16:12.022Z,6.58
2016-11-24T02:17:12.041Z,6.61
2016-11-24T02:18:26.981Z,6.64
2016-11-24T02:19:12.083Z,6.59
2016-11-24T02:20:27.012Z,6.62
2016-11-24T02:21:12.123Z,6.59
2016-11-24T02:22:12.134Z,6.56
2016-11-24T02:24:12.179Z,6.41
2016-11-24T02:25:12.190Z,6.41
2016-11-24T02:26:12.215Z,6.46
2016-11-24T02:27:27.150Z,6.36
2016-11-24T02:28:12.246Z,6.49
2016-11-24T02:29:12.261Z,6.41
2016-11-24T02:31:12.309Z,6.44
2016-11-24T02:32:12.329Z,6.44
2016-11-24T02:34:12.364Z,6.55
2016-11-24T02:35:27.292Z,6.56
2016-11-24T02:36:27.310Z,6.41
2016-11-24T02:37:12.421Z,6.37
2016-11-24T02:38:27.343Z,6.37
2016-11-24T02:39:27.362Z,6.38
2016-11-24T02:41:12.490Z,6.4
2016-11-24T02:42:12.505Z,6.34
2016-11-24T02:43:12.534Z,6.36
2016-11-24T02:44:12.546Z,6.33
2016-11-24T02:45:12.568Z,6.31
2016-11-24T02:46:12.588Z,6.22
2016-11-24T02:47:12.610Z,6.28
2016-11-24T02:48:12.616Z,6.36
2016-11-24T02:49:12.637Z,6.36
2016-11-24T02:50:12.656Z,6.37
2016-11-24T02:51:27.588Z,6.31
2016-11-24T02:52:12.697Z,6.38
2016-11-24T02:53:12.762Z,6.27
2016-11-24T02:54:12.736Z,6.34
2016-11-24T02:55:27.661Z,6.3
2016-11-24T02:57:12.796Z,6.27
2016-11-24T02:58:12.806Z,6.31
2016-11-24T02:59:12.821Z,6.33
2016-11-24T03:00:12.846Z,6.3
2016-11-24T03:01:12.858Z,6.3
2016-11-24T03:02:12.884Z,6.22
2016-11-24T03:03:12.902Z,6.17
2016-11-24T03:04:12.915Z,6.17
2016-11-24T03:05:27.844Z,6.18
2016-11-24T03:06:12.952Z,6.17
2016-11-24T03:07:12.969Z,6.22
2016-11-24T03:08:13.035Z,6.28
2016-11-24T03:10:13.029Z,6.25
2016-11-24T03:11:13.052Z,6.28
2016-11-24T03:12:13.100Z,6.18
2016-11-24T03:14:13.100Z,6.21
2016-11-24T03:16:13.140Z,6.22
2016-11-24T03:17:13.157Z,6.28
2016-11-24T03:18:13.176Z,6.17
2016-11-24T03:19:13.196Z,6.3
2016-11-24T03:20:13.218Z,6.27
2016-11-24T03:21:28.138Z,6.36
2016-11-24T03:22:13.253Z,6.31
2016-11-24T03:23:28.179Z,6.3
2016-11-24T03:24:13.289Z,6.34
2016-11-24T03:25:13.308Z,6.3
2016-11-24T03:26:13.328Z,6.31
2016-11-24T03:27:28.249Z,6.3
2016-11-24T03:28:13.360Z,6.4
2016-11-24T03:29:13.378Z,6.48
2016-11-24T03:30:13.400Z,6.43
2016-11-24T03:31:13.415Z,6.41
2016-11-24T03:32:13.437Z,6.4
2016-11-24T03:33:13.761Z,6.41
2016-11-24T03:34:13.477Z,6.44
2016-11-24T03:35:13.538Z,6.48
2016-11-24T03:36:13.509Z,6.43
2016-11-24T03:38:13.848Z,6.54
2016-11-24T03:39:13.566Z,6.46
2016-11-24T03:40:13.577Z,6.38
2016-11-24T03:41:13.595Z,6.4
2016-11-24T03:42:13.622Z,6.38
2016-11-24T03:43:13.636Z,6.3
2016-11-24T03:44:13.654Z,6.38
2016-11-24T03:45:13.674Z,6.33
2016-11-24T03:46:13.697Z,6.33
2016-11-24T03:47:13.710Z,6.3
2016-11-24T03:48:13.723Z,6.4
2016-11-24T03:49:13.753Z,6.48
2016-11-24T03:50:13.820Z,6.41
2016-11-24T03:51:13.791Z,6.36
2016-11-24T03:52:13.796Z,6.33
2016-11-24T03:53:28.734Z,6.37
2016-11-24T03:54:13.842Z,6.33
2016-11-24T03:55:13.867Z,6.34
2016-11-24T03:56:13.879Z,6.33
2016-11-24T03:57:13.894Z,6.25
2016-11-24T03:58:28.824Z,6.25
2016-11-24T03:59:13.932Z,6.31
2016-11-24T04:00:13.946Z,6.19
2016-11-24T04:01:13.974Z,6.21
2016-11-24T04:02:13.991Z,6.18
2016-11-24T04:03:14.012Z,6.22
2016-11-24T04:04:14.028Z,6.17
2016-11-24T04:05:14.048Z,6.3
2016-11-24T04:06:14.059Z,6.21
2016-11-24T04:07:14.076Z,6.27
2016-11-24T04:08:29.013Z,6.3
2016-11-24T04:09:14.120Z,6.3
2016-11-24T04:10:14.130Z,6.33
2016-11-24T04:11:14.209Z,6.34
2016-11-24T04:12:14.208Z,6.33
2016-11-24T04:13:14.188Z,6.34
2016-11-24T04:15:14.228Z,6.34
2016-11-24T04:16:14.255Z,6.41
2016-11-24T04:17:14.261Z,6.4
2016-11-24T04:18:14.289Z,6.41
2016-11-24T04:19:14.297Z,6.48
2016-11-24T04:20:14.314Z,6.34
2016-11-24T04:21:14.343Z,6.34
2016-11-24T04:22:14.353Z,6.3
2016-11-24T04:23:14.382Z,6.33
2016-11-24T04:24:14.390Z,6.28
2016-11-24T04:25:14.415Z,6.36
2016-11-24T04:26:14.432Z,6.34
2016-11-24T04:27:14.458Z,6.27
2016-11-24T04:28:29.381Z,6.3
2016-11-24T04:29:29.395Z,6.28
2016-11-24T04:30:14.501Z,6.27
2016-11-24T04:31:14.522Z,6.25
2016-11-24T04:32:14.595Z,6.3
2016-11-24T04:33:14.558Z,6.27
2016-11-24T04:34:14.586Z,6.28
2016-11-24T04:35:14.596Z,6.3
2016-11-24T04:36:14.622Z,6.3
2016-11-24T04:37:14.631Z,6.31
2016-11-24T04:38:14.650Z,6.36
2016-11-24T04:39:14.678Z,6.34
2016-11-24T04:40:29.599Z,6.3
2016-11-24T04:41:14.703Z,6.33
2016-11-24T04:42:14.730Z,6.33
2016-11-24T04:43:14.739Z,6.3
2016-11-24T04:44:14.764Z,6.34
2016-11-24T04:45:14.788Z,6.31
2016-11-24T04:46:14.808Z,6.3
2016-11-24T04:47:14.817Z,6.34
2016-11-24T04:48:14.841Z,6.3
2016-11-24T04:49:14.855Z,6.33
2016-11-24T04:50:14.878Z,6.36
2016-11-24T04:51:14.896Z,6.4
2016-11-24T04:52:14.909Z,6.34
2016-11-24T04:53:14.931Z,6.41
2016-11-24T04:54:14.945Z,6.43
2016-11-24T04:55:14.962Z,6.49
2016-11-24T04:56:29.897Z,6.36
2016-11-24T04:57:29.918Z,6.43
2016-11-24T04:58:15.017Z,6.48
2016-11-24T04:59:15.035Z,6.44
2016-11-24T05:00:15.058Z,6.43
2016-11-24T05:01:15.081Z,6.38
2016-11-24T05:02:15.145Z,6.41
2016-11-24T05:03:15.111Z,6.46
2016-11-24T05:04:15.131Z,6.41
2016-11-24T05:05:15.153Z,6.4
2016-11-24T05:06:15.166Z,6.41
2016-11-24T05:07:15.191Z,6.41
2016-11-24T05:08:15.200Z,6.38
2016-11-24T05:10:15.245Z,6.37
2016-11-24T05:11:15.261Z,6.48
2016-11-24T05:12:30.185Z,6.52
2016-11-24T05:13:15.299Z,6.54
2016-11-24T05:14:15.314Z,6.38
2016-11-24T05:15:15.362Z,6.48
2016-11-24T05:16:15.345Z,6.54
2016-11-24T05:17:15.370Z,6.51
2016-11-24T05:18:15.386Z,6.55
2016-11-24T05:19:15.402Z,6.55
2016-11-24T05:20:15.451Z,6.54
2016-11-24T05:21:15.445Z,6.56
2016-11-24T05:22:15.464Z,6.59
2016-11-24T05:23:15.478Z,6.55
2016-11-24T05:24:15.526Z,6.61
2016-11-24T05:25:15.520Z,6.62
2016-11-24T05:26:15.535Z,6.61
2016-11-24T05:27:15.556Z,6.71
2016-11-24T05:29:15.591Z,6.66
2016-11-24T05:30:15.605Z,6.64
2016-11-24T05:31:15.625Z,6.73
2016-11-24T05:32:15.640Z,6.67
2016-11-24T05:34:15.683Z,6.67
2016-11-24T05:35:30.609Z,6.76
2016-11-24T05:36:15.720Z,6.71
2016-11-24T05:38:15.763Z,6.74
2016-11-24T05:39:15.773Z,6.73
2016-11-24T05:40:15.800Z,6.73
2016-11-24T05:41:15.806Z,6.76
2016-11-24T05:42:15.824Z,6.77
2016-11-24T05:43:30.794Z,6.74
2016-11-24T05:44:15.866Z,6.74
2016-11-24T05:45:15.884Z,6.76
2016-11-24T05:46:15.900Z,6.67
2016-11-24T05:47:15.918Z,6.67
2016-11-24T05:48:15.940Z,6.71
2016-11-24T05:49:15.965Z,6.64
2016-11-24T05:50:15.980Z,6.74
2016-11-24T05:51:16.001Z,6.74
2016-11-24T05:52:16.025Z,6.67
2016-11-24T05:53:16.061Z,6.73
2016-11-24T05:54:16.054Z,6.73
2016-11-24T05:55:16.079Z,6.73
2016-11-24T05:56:16.125Z,6.71
2016-11-24T05:58:16.131Z,6.62
2016-11-24T05:59:16.143Z,6.73
2016-11-24T06:00:31.078Z,6.69
2016-11-24T06:01:16.191Z,6.74
2016-11-24T06:02:16.203Z,6.73
2016-11-24T06:03:16.219Z,6.71
2016-11-24T06:04:31.149Z,6.79
2016-11-24T06:05:16.261Z,6.7
2016-11-24T06:06:16.280Z,6.67
2016-11-24T06:07:16.298Z,6.71
2016-11-24T06:09:16.334Z,6.74
2016-11-24T06:10:16.355Z,6.74
2016-11-24T06:11:16.416Z,6.73
2016-11-24T06:12:16.389Z,6.74
2016-11-24T06:13:16.493Z,6.74
2016-11-24T06:14:16.431Z,6.74
2016-11-24T06:15:31.394Z,6.71
2016-11-24T06:16:16.463Z,6.7
2016-11-24T06:17:16.479Z,6.67
2016-11-24T06:18:16.497Z,6.73
2016-11-24T06:20:16.534Z,6.77
2016-11-24T06:21:16.567Z,6.7
2016-11-24T06:22:16.584Z,6.71
2016-11-24T06:23:16.604Z,6.73
2016-11-24T06:24:16.614Z,6.79
2016-11-24T06:25:16.627Z,6.81
2016-11-24T06:26:16.659Z,6.81
2016-11-24T06:27:16.669Z,6.81
2016-11-24T06:28:16.693Z,6.81
2016-11-24T06:29:16.713Z,6.84
2016-11-24T06:30:16.725Z,6.95
2016-11-24T06:31:31.657Z,6.89
2016-11-24T06:32:16.767Z,6.88
2016-11-24T06:33:16.781Z,6.89
2016-11-24T06:34:16.801Z,6.84
2016-11-24T06:36:16.831Z,6.8
2016-11-24T06:37:16.863Z,6.66
2016-11-24T06:38:16.873Z,6.71
2016-11-24T06:39:16.887Z,6.71
2016-11-24T06:40:16.910Z,6.67
2016-11-24T06:41:16.932Z,6.64
2016-11-24T06:42:16.955Z,6.62
2016-11-24T06:43:16.973Z,6.61
2016-11-24T06:44:16.987Z,6.56
2016-11-24T06:45:17.013Z,6.55
2016-11-24T06:46:17.027Z,6.56
2016-11-24T06:48:17.062Z,6.56
2016-11-24T06:49:17.080Z,6.61
2016-11-24T06:51:17.122Z,6.56
2016-11-24T06:52:17.133Z,6.67
2016-11-24T06:53:17.160Z,6.61
2016-11-24T06:54:17.176Z,6.62
2016-11-24T06:55:17.193Z,6.61
2016-11-24T06:56:17.206Z,6.67
2016-11-24T06:57:17.288Z,6.59
2016-11-24T06:58:17.245Z,6.64
2016-11-24T06:59:17.265Z,6.69
2016-11-24T07:00:17.283Z,6.69
2016-11-24T07:01:17.310Z,6.62
2016-11-24T07:02:17.329Z,6.64
2016-11-24T07:03:32.251Z,6.62
2016-11-24T07:04:32.272Z,6.59
2016-11-24T07:05:17.713Z,6.71
2016-11-24T07:07:17.416Z,6.61
2016-11-24T07:08:32.344Z,6.61
2016-11-24T07:09:17.452Z,6.56
2016-11-24T07:10:17.467Z,6.56
2016-11-24T07:11:17.492Z,6.56
2016-11-24T07:13:17.528Z,6.64
2016-11-24T07:14:17.552Z,6.55
2016-11-24T07:17:17.598Z,6.52
2016-11-24T07:18:32.528Z,6.56
2016-11-24T07:19:17.642Z,6.62
2016-11-24T07:20:32.570Z,6.52
2016-11-24T07:21:17.829Z,6.66
2016-11-24T07:22:17.698Z,6.58
2016-11-24T07:23:17.718Z,6.58
2016-11-24T07:24:32.639Z,6.61
2016-11-24T07:25:17.752Z,6.61
2016-11-24T07:26:17.772Z,6.64
2016-11-24T07:27:17.789Z,6.69
2016-11-24T07:28:17.810Z,6.56
2016-11-24T07:30:17.892Z,6.64
2016-11-24T07:31:17.862Z,6.56
2016-11-24T07:32:17.884Z,6.59
2016-11-24T07:33:32.817Z,6.58
2016-11-24T07:34:17.921Z,6.58
2016-11-24T07:35:17.941Z,6.64
2016-11-24T07:36:17.957Z,6.55
2016-11-24T07:37:17.974Z,6.58
2016-11-24T07:38:17.989Z,6.55
2016-11-24T07:39:18.009Z,6.56
2016-11-24T07:40:18.032Z,6.69
2016-11-24T07:41:18.051Z,6.62
2016-11-24T07:42:18.076Z,6.64
2016-11-24T07:43:18.088Z,6.62
2016-11-24T07:44:18.104Z,6.74
2016-11-24T07:45:18.121Z,6.74
2016-11-24T07:46:18.147Z,6.76
2016-11-24T07:47:18.487Z,6.64
2016-11-24T07:48:18.183Z,6.7
2016-11-24T07:49:18.201Z,6.61
2016-11-24T07:50:33.133Z,6.69
2016-11-24T07:51:33.151Z,6.74
2016-11-24T07:52:18.258Z,6.77
2016-11-24T07:53:18.279Z,6.79
2016-11-24T07:54:18.291Z,6.81
2016-11-24T07:55:18.317Z,6.8
2016-11-24T07:56:18.389Z,6.79
2016-11-24T07:58:18.376Z,6.73
2016-11-24T07:59:18.384Z,6.71
2016-11-24T08:00:18.403Z,6.67
2016-11-24T08:01:18.435Z,6.76
2016-11-24T08:02:18.447Z,6.71
2016-11-24T08:03:18.464Z,6.64
2016-11-24T08:04:18.487Z,6.67
2016-11-24T08:05:18.504Z,6.76
2016-11-24T08:06:33.739Z,6.8
2016-11-24T08:07:18.596Z,6.7
2016-11-24T08:09:18.584Z,6.87
2016-11-24T08:10:18.651Z,6.99
2016-11-24T08:11:18.619Z,6.99
2016-11-24T08:12:18.641Z,7.02
2016-11-24T08:13:33.565Z,7.05
2016-11-24T08:14:18.673Z,7.1
2016-11-24T08:15:18.701Z,6.97
2016-11-24T08:16:18.716Z,7.07
2016-11-24T08:17:18.744Z,7.15
2016-11-24T08:18:18.750Z,7.07
2016-11-24T08:19:18.774Z,7.1
2016-11-24T08:20:18.790Z,7.21
2016-11-24T08:21:18.808Z,7.15
2016-11-24T08:22:33.740Z,7.09
2016-11-24T08:23:18.863Z,7.24
2016-11-24T08:24:18.868Z,7.24
2016-11-24T08:25:18.890Z,7.2
2016-11-24T08:26:18.916Z,7.21
2016-11-24T08:27:18.933Z,7.21
2016-11-24T08:28:18.949Z,7.25
2016-11-24T08:29:18.967Z,7.28
2016-11-24T08:30:18.990Z,7.3
2016-11-24T08:31:19.063Z,7.23
2016-11-24T08:32:19.022Z,7.23
2016-11-24T08:33:19.043Z,7.37
2016-11-24T08:34:19.064Z,7.43
2016-11-24T08:36:19.106Z,7.48
2016-11-24T08:37:19.127Z,7.52
2016-11-24T08:39:19.161Z,7.43
2016-11-24T08:40:19.187Z,7.49
2016-11-24T08:41:19.203Z,7.5
2016-11-24T08:42:19.227Z,7.46
2016-11-24T08:43:19.241Z,7.45
2016-11-24T08:44:19.266Z,7.5
2016-11-24T08:45:19.287Z,7.49
2016-11-24T08:46:19.296Z,7.5
2016-11-24T08:47:19.326Z,7.48
2016-11-24T08:48:19.335Z,7.46
2016-11-24T08:49:19.362Z,7.49
2016-11-24T08:50:19.379Z,7.5
2016-11-24T08:51:19.410Z,7.52
2016-11-24T08:52:19.422Z,7.63
2016-11-24T08:53:34.357Z,7.61
2016-11-24T08:54:19.462Z,7.67
2016-11-24T08:55:19.482Z,7.64
2016-11-24T08:56:19.500Z,7.68
2016-11-24T08:57:19.572Z,7.53
2016-11-24T08:59:19.564Z,7.61
2016-11-24T09:00:19.680Z,7.58
2016-11-24T09:01:19.596Z,7.63
2016-11-24T09:03:19.644Z,7.61
2016-11-24T09:04:19.662Z,7.67
2016-11-24T09:05:19.681Z,7.63
2016-11-24T09:06:19.703Z,7.61
2016-11-24T09:07:19.723Z,7.58
2016-11-24T09:08:19.740Z,7.67
2016-11-24T09:09:19.756Z,7.61
2016-11-24T09:10:19.784Z,7.6
2016-11-24T09:11:34.714Z,7.63
2016-11-24T09:12:19.822Z,7.68
2016-11-24T09:13:19.840Z,7.67
2016-11-24T09:14:19.866Z,7.61
2016-11-24T09:15:19.879Z,7.58
2016-11-24T09:16:19.898Z,7.6
2016-11-24T09:17:19.920Z,7.74
2016-11-24T09:18:19.941Z,7.64
2016-11-24T09:20:19.981Z,7.74
2016-11-24T09:21:19.998Z,7.63
2016-11-24T09:22:20.020Z,7.64
2016-11-24T09:23:20.038Z,7.64
2016-11-24T09:24:20.058Z,7.67
2016-11-24T09:25:34.991Z,7.69
2016-11-24T09:26:20.129Z,7.64
2016-11-24T09:27:20.117Z,7.6
2016-11-24T09:28:20.139Z,7.68
2016-11-24T09:29:20.159Z,7.74
2016-11-24T09:30:20.174Z,7.8
2016-11-24T09:32:20.214Z,8
2016-11-24T09:33:20.237Z,8
2016-11-24T09:34:20.260Z,7.95
2016-11-24T09:35:20.272Z,7.92
2016-11-24T09:36:20.300Z,7.89
2016-11-24T09:37:20.626Z,7.86
2016-11-24T09:38:20.342Z,7.86
2016-11-24T09:39:20.360Z,7.79
2016-11-24T09:40:20.380Z,7.9
2016-11-24T09:41:35.306Z,7.85
2016-11-24T09:42:20.421Z,7.8
2016-11-24T09:43:20.447Z,7.95
2016-11-24T09:44:20.452Z,8
2016-11-24T09:45:20.784Z,8.04
2016-11-24T09:46:20.493Z,8.04
2016-11-24T09:47:20.525Z,8.12
2016-11-24T09:48:20.538Z,8.08
2016-11-24T09:50:20.579Z,7.89
2016-11-24T09:51:20.595Z,7.83
2016-11-24T09:52:20.616Z,7.82
2016-11-24T09:53:20.640Z,7.98
2016-11-24T09:55:20.676Z,8.04
2016-11-24T09:56:20.701Z,8.07
2016-11-24T09:57:35.633Z,8.1
2016-11-24T09:58:20.741Z,8.04
2016-11-24T09:59:20.760Z,8.04
2016-11-24T10:00:20.775Z,8.12
2016-11-24T10:01:20.807Z,8.04
2016-11-24T10:02:20.820Z,8.07
2016-11-24T10:04:35.770Z,8.05
2016-11-24T10:05:20.883Z,8
2016-11-24T10:06:20.895Z,8
2016-11-24T10:07:20.927Z,8.1
2016-11-24T10:08:20.945Z,8.05
2016-11-24T10:09:20.958Z,8.02
2016-11-24T10:10:20.983Z,7.97
2016-11-24T10:11:20.999Z,7.82
2016-11-24T10:13:36.008Z,7.89
2016-11-24T10:14:35.973Z,7.86
2016-11-24T10:15:35.992Z,7.87
2016-11-24T10:16:21.109Z,7.93
2016-11-24T10:17:36.033Z,7.93
2016-11-24T10:18:21.147Z,7.89
2016-11-24T10:19:21.158Z,7.85
2016-11-24T10:20:21.178Z,7.85
2016-11-24T10:21:21.197Z,7.86
2016-11-24T10:22:21.228Z,7.83
2016-11-24T10:23:21.241Z,7.85
2016-11-24T10:24:21.263Z,7.85
2016-11-24T10:25:21.286Z,7.86
2016-11-24T10:26:21.299Z,7.87
2016-11-24T10:27:21.318Z,7.98
2016-11-24T10:28:36.255Z,7.97
2016-11-24T10:29:21.356Z,7.97
2016-11-24T10:30:21.374Z,8.02
2016-11-24T10:32:21.418Z,8.07
2016-11-24T10:33:21.439Z,8.05
2016-11-24T10:34:21.461Z,7.98
2016-11-24T10:35:21.481Z,8.08
2016-11-24T10:37:21.573Z,8.12
2016-11-24T10:38:21.541Z,8.16
2016-11-24T10:39:21.557Z,8.22
2016-11-24T10:40:21.575Z,8.08
2016-11-24T10:41:21.605Z,8.05
2016-11-24T10:42:21.615Z,8.12
2016-11-24T10:43:21.639Z,8.18
2016-11-24T10:44:21.656Z,8.02
2016-11-24T10:45:21.674Z,8.11
2016-11-24T10:46:21.692Z,8.11
2016-11-24T10:47:21.723Z,8.07
2016-11-24T10:48:21.735Z,8.18
2016-11-24T10:49:21.755Z,8.11
2016-11-24T10:50:21.773Z,8.08
2016-11-24T10:52:21.813Z,8.12
2016-11-24T10:53:21.834Z,8.23
2016-11-24T10:54:21.879Z,8.18
2016-11-24T10:55:21.866Z,8.11
2016-11-24T10:56:21.891Z,8.07
2016-11-24T10:57:21.913Z,8.16
2016-11-24T10:58:21.937Z,8.23
2016-11-24T10:59:21.950Z,8.11
2016-11-24T11:00:36.887Z,8.16
2016-11-24T11:01:22.193Z,8.22
2016-11-24T11:02:22.020Z,8.18
2016-11-24T11:03:22.034Z,8.1
2016-11-24T11:04:22.050Z,8.07
2016-11-24T11:05:22.068Z,8.05
2016-11-24T11:06:22.093Z,8.07
2016-11-24T11:07:22.108Z,8.02
2016-11-24T11:08:22.127Z,8
2016-11-24T11:10:22.180Z,8.05
2016-11-24T11:11:22.191Z,8.1
2016-11-24T11:12:22.257Z,8.15
2016-11-24T11:13:22.232Z,8.04
2016-11-24T11:14:22.247Z,8.19
2016-11-24T11:15:22.275Z,8.2
2016-11-24T11:16:37.205Z,8.19
2016-11-24T11:17:22.355Z,8.18
2016-11-24T11:19:37.279Z,8.19
2016-11-24T11:20:22.371Z,8.22
2016-11-24T11:22:22.411Z,8.23
2016-11-24T11:23:22.437Z,8.22
2016-11-24T11:24:22.501Z,8.11
2016-11-24T11:25:22.477Z,8.11
2016-11-24T11:26:22.493Z,8.15
2016-11-24T11:27:22.510Z,8.2
2016-11-24T11:28:22.529Z,8.26
2016-11-24T11:29:22.551Z,8.25
2016-11-24T11:30:22.567Z,8.37
2016-11-24T11:31:22.589Z,8.43
2016-11-24T11:32:37.518Z,8.45
2016-11-24T11:33:22.623Z,8.44
2016-11-24T11:34:22.697Z,8.41
2016-11-24T11:35:22.669Z,8.43
2016-11-24T11:36:22.692Z,8.47
2016-11-24T11:37:22.711Z,8.44
2016-11-24T11:38:22.729Z,8.4
2016-11-24T11:39:22.746Z,8.47
2016-11-24T11:40:22.764Z,8.56
2016-11-24T11:41:23.396Z,8.43
2016-11-24T11:42:22.812Z,8.43
2016-11-24T11:43:22.830Z,8.41
2016-11-24T11:44:23.158Z,8.61
2016-11-24T11:45:22.870Z,8.48
2016-11-24T11:46:22.893Z,8.38
2016-11-24T11:47:22.909Z,8.37
2016-11-24T11:48:37.840Z,8.48
2016-11-24T11:49:22.949Z,8.41
2016-11-24T11:50:23.273Z,8.45
2016-11-24T11:51:22.991Z,8.41
2016-11-24T11:52:23.010Z,8.41
2016-11-24T11:53:23.033Z,8.43
2016-11-24T11:54:23.050Z,8.29
2016-11-24T11:55:23.122Z,8.53
2016-11-24T11:56:23.118Z,8.48
2016-11-24T11:57:23.116Z,8.44
2016-11-24T11:58:23.132Z,8.43
2016-11-24T12:00:23.517Z,8.47
2016-11-24T12:01:23.194Z,8.48
2016-11-24T12:02:23.214Z,8.56
2016-11-24T12:03:38.149Z,8.44
2016-11-24T12:04:23.252Z,8.52
2016-11-24T12:05:23.272Z,8.5
2016-11-24T12:07:23.312Z,8.4
2016-11-24T12:08:23.339Z,8.41
2016-11-24T12:09:38.261Z,8.44
2016-11-24T12:10:23.382Z,8.52
2016-11-24T12:11:23.395Z,8.45
2016-11-24T12:12:23.416Z,8.37
2016-11-24T12:13:23.749Z,8.48
2016-11-24T12:14:23.456Z,8.44
2016-11-24T12:15:23.825Z,8.37
2016-11-24T12:16:23.497Z,8.34
2016-11-24T12:17:23.520Z,8.37
2016-11-24T12:18:23.538Z,8.4
2016-11-24T12:19:23.556Z,8.43
2016-11-24T12:20:23.577Z,8.48
2016-11-24T12:21:23.593Z,8.48
2016-11-24T12:22:23.923Z,8.38
2016-11-24T12:23:23.628Z,8.45
2016-11-24T12:24:23.656Z,8.5
2016-11-24T12:25:23.673Z,8.58
2016-11-24T12:27:23.718Z,8.5
2016-11-24T12:28:23.736Z,8.52
2016-11-24T12:30:23.774Z,8.41
2016-11-24T12:31:23.797Z,8.45
2016-11-24T12:32:23.816Z,8.41
2016-11-24T12:33:23.841Z,8.55
2016-11-24T12:34:23.857Z,8.38
2016-11-24T12:35:38.790Z,8.52
2016-11-24T12:36:23.897Z,8.48
2016-11-24T12:37:23.924Z,8.52
2016-11-24T12:39:23.958Z,8.43
2016-11-24T12:40:23.984Z,8.45
2016-11-24T12:41:38.905Z,8.45
2016-11-24T12:42:24.021Z,8.44
2016-11-24T12:43:24.047Z,8.48
2016-11-24T12:44:24.053Z,8.48
2016-11-24T12:45:24.079Z,8.55
2016-11-24T12:46:24.414Z,8.47
2016-11-24T12:47:24.116Z,8.5
2016-11-24T12:48:24.143Z,8.52
2016-11-24T12:49:24.159Z,8.55
2016-11-24T12:50:24.183Z,8.52
2016-11-24T12:51:39.110Z,8.48
2016-11-24T12:52:24.221Z,8.45
2016-11-24T12:53:24.245Z,8.45
2016-11-24T12:54:39.170Z,8.45
2016-11-24T12:55:24.276Z,8.38
2016-11-24T12:56:24.296Z,8.44
2016-11-24T12:57:24.313Z,8.43
2016-11-24T12:58:24.334Z,8.44
2016-11-24T12:59:24.359Z,8.53
2016-11-24T13:00:24.373Z,8.43
2016-11-24T13:01:24.397Z,8.44
2016-11-24T13:02:24.414Z,8.44
2016-11-24T13:03:24.442Z,8.5
2016-11-24T13:04:24.454Z,8.47
2016-11-24T13:05:24.478Z,8.48
2016-11-24T13:06:24.508Z,8.4
2016-11-24T13:07:39.430Z,8.55
2016-11-24T13:08:39.450Z,8.52
2016-11-24T13:09:24.556Z,8.52
2016-11-24T13:10:24.579Z,8.53
2016-11-24T13:11:24.595Z,8.48
2016-11-24T13:12:24.617Z,8.5
2016-11-24T13:13:24.635Z,8.53
2016-11-24T13:14:24.655Z,8.52
2016-11-24T13:15:24.682Z,8.44
2016-11-24T13:17:24.718Z,8.45
2016-11-24T13:18:24.731Z,8.48
2016-11-24T13:19:24.761Z,8.43
2016-11-24T13:21:24.798Z,8.47
2016-11-24T13:22:24.820Z,8.37
2016-11-24T13:23:39.752Z,8.44
2016-11-24T13:24:24.866Z,8.47
2016-11-24T13:25:24.876Z,8.41
2016-11-24T13:26:24.903Z,8.43
2016-11-24T13:27:24.920Z,8.5
2016-11-24T13:28:24.941Z,8.38
2016-11-24T13:29:39.869Z,8.4
2016-11-24T13:30:24.977Z,8.43
2016-11-24T13:31:24.998Z,8.44
2016-11-24T13:32:25.025Z,8.38
2016-11-24T13:34:25.056Z,8.41
2016-11-24T13:35:25.075Z,8.4
2016-11-24T13:36:25.170Z,8.38
2016-11-24T13:37:25.170Z,8.33
2016-11-24T13:38:40.052Z,8.36
2016-11-24T13:39:25.161Z,8.34
2016-11-24T13:40:40.091Z,8.37
2016-11-24T13:41:25.197Z,8.36
2016-11-24T13:42:25.220Z,8.36
2016-11-24T13:43:25.238Z,8.34
2016-11-24T13:44:25.266Z,8.4
2016-11-24T13:45:25.276Z,8.3
2016-11-24T13:46:25.303Z,8.29
2016-11-24T13:47:25.313Z,8.26
2016-11-24T13:48:25.339Z,8.22
2016-11-24T13:49:25.359Z,8.22
2016-11-24T13:50:25.388Z,8.22
2016-11-24T13:51:25.396Z,8.12
2016-11-24T13:52:25.473Z,8.11
2016-11-24T13:53:25.438Z,8.1
2016-11-24T13:54:25.456Z,8.07
2016-11-24T13:55:25.479Z,8.04
2016-11-24T13:56:40.411Z,8.04
2016-11-24T13:57:25.513Z,8.01
2016-11-24T13:58:25.539Z,8.1
2016-11-24T13:59:25.557Z,8.1
2016-11-24T14:00:25.575Z,8
2016-11-24T14:01:25.595Z,7.97
2016-11-24T14:02:40.527Z,7.87
2016-11-24T14:03:25.643Z,7.86
2016-11-24T14:04:25.661Z,7.9
2016-11-24T14:05:25.678Z,7.85
2016-11-24T14:06:25.701Z,7.85
2016-11-24T14:07:25.717Z,7.89
2016-11-24T14:08:40.700Z,7.89
2016-11-24T14:09:25.809Z,7.89
2016-11-24T14:10:40.683Z,7.8
2016-11-24T14:11:25.800Z,7.8
2016-11-24T14:12:25.822Z,7.82
2016-11-24T14:13:25.836Z,7.67
2016-11-24T14:14:25.857Z,7.63
2016-11-24T14:15:25.875Z,7.68
2016-11-24T14:16:25.995Z,7.68
2016-11-24T14:17:25.911Z,7.83
2016-11-24T14:18:25.932Z,7.61
2016-11-24T14:19:25.952Z,7.63
2016-11-24T14:20:25.977Z,7.58
2016-11-24T14:21:25.996Z,7.63
2016-11-24T14:22:26.010Z,7.63